Time;durP1;ratioP1;P1;durP2;ratioP2;P2;SDS_P1;SDS_P2;PMS_P1;PMS_P2;Temp;Humidity;BMP_temperature;BMP_pressure;BME280_temperature;BME280_humidity;BME280_pressure;Samples;Min_cycle;Max_cycle;Signal;HPM_P1;HPM_P2
2023/12/31 00:01:24;;;;;;;5.03;2.58;;;;;;;1.09;100.00;100693.28;5070855;28;20056;-69
2023/12/31 00:03:50;;;;;;;6.13;2.90;;;;;;;1.29;100.00;100717.09;5070680;28;20028;-69
2023/12/31 00:06:15;;;;;;;6.35;2.15;;;;;;;1.15;100.00;100713.06;5036127;28;20033;-69
2023/12/31 00:08:40;;;;;;;4.82;2.50;;;;;;;1.14;100.00;100717.53;5052289;28;20032;-68
2023/12/31 00:11:06;;;;;;;4.80;2.45;;;;;;;1.20;100.00;100720.63;5070033;28;20037;-69
2023/12/31 00:13:31;;;;;;;7.13;2.67;;;;;;;1.18;100.00;100720.75;5070871;28;20487;-70
2023/12/31 00:15:56;;;;;;;4.55;2.72;;;;;;;1.16;100.00;100718.25;5054254;28;20048;-69
2023/12/31 00:18:22;;;;;;;4.88;2.50;;;;;;;1.20;100.00;100720.63;5055580;28;20112;-68
2023/12/31 00:20:47;;;;;;;4.70;2.47;;;;;;;0.74;100.00;100638.22;5039111;28;20029;-69
2023/12/31 00:23:13;;;;;;;5.30;2.90;;;;;;;1.21;100.00;100716.97;5055491;28;20056;-69
2023/12/31 00:25:39;;;;;;;5.18;2.70;;;;;;;1.20;100.00;100724.09;5073667;28;20376;-69
2023/12/31 00:28:04;;;;;;;5.35;2.40;;;;;;;1.21;100.00;100728.41;5055577;28;20028;-69
2023/12/31 00:30:30;;;;;;;2.90;2.38;;;;;;;1.18;100.00;100731.34;5055012;28;20032;-69
2023/12/31 00:32:55;;;;;;;5.40;2.95;;;;;;;1.25;100.00;100732.44;5073387;28;20372;-69
2023/12/31 00:35:21;;;;;;;3.88;2.78;;;;;;;1.27;100.00;100733.16;5055452;28;20326;-69
2023/12/31 00:37:47;;;;;;;3.75;2.33;;;;;;;1.30;100.00;100729.41;5055314;28;20491;-69
2023/12/31 00:40:12;;;;;;;5.10;2.58;;;;;;;1.27;100.00;100733.16;5054862;28;20032;-68
2023/12/31 00:42:37;;;;;;;4.03;2.70;;;;;;;1.29;100.00;100733.88;5073060;28;20507;-68
2023/12/31 00:45:03;;;;;;;5.97;2.70;;;;;;;1.32;100.00;100744.16;5072759;28;20036;-67
2023/12/31 00:47:28;;;;;;;3.35;2.60;;;;;;;1.21;100.00;100728.41;5055084;28;20052;-69
2023/12/31 00:49:54;;;;;;;4.95;2.33;;;;;;;1.27;100.00;100738.47;5055225;28;20036;-70
2023/12/31 00:52:19;;;;;;;3.70;2.38;;;;;;;1.24;100.00;100732.59;5073351;28;20025;-68
2023/12/31 00:54:46;;;;;;;4.57;2.72;;;;;;;1.10;100.00;100702.91;5073067;28;20029;-69
2023/12/31 00:57:11;;;;;;;4.28;2.70;;;;;;;1.31;100.00;100736.38;5073183;28;20028;-69
2023/12/31 00:59:36;;;;;;;4.32;2.40;;;;;;;1.30;100.00;100737.34;5055313;28;20037;-68
2023/12/31 01:02:02;;;;;;;5.68;3.10;;;;;;;1.32;100.00;100741.50;5055053;28;20495;-68
2023/12/31 01:04:27;;;;;;;3.53;2.70;;;;;;;1.27;100.00;100729.69;5021905;28;20089;-69
2023/12/31 01:06:52;;;;;;;4.70;2.72;;;;;;;1.32;100.00;100732.72;5073055;28;20107;-68
2023/12/31 01:09:18;;;;;;;5.63;3.10;;;;;;;1.27;100.00;100727.84;5038254;28;20052;-69
2023/12/31 01:11:43;;;;;;;5.57;2.67;;;;;;;1.11;100.00;100711.69;5037784;28;20488;-72
2023/12/31 01:14:09;;;;;;;8.23;3.00;;;;;;;1.34;100.00;100728.13;5054911;28;20410;-69
2023/12/31 01:16:34;;;;;;;4.90;3.05;;;;;;;1.29;100.00;100731.22;5037854;28;20032;-69
2023/12/31 01:18:59;;;;;;;4.32;2.70;;;;;;;1.33;100.00;100726.47;5072641;28;20574;-68
2023/12/31 01:21:25;;;;;;;3.45;2.83;;;;;;;1.30;100.00;100729.41;5072330;28;20021;-69
2023/12/31 01:23:50;;;;;;;5.70;2.70;;;;;;;1.31;100.00;100741.66;5072369;28;20032;-69
2023/12/31 01:26:15;;;;;;;3.95;2.63;;;;;;;1.35;100.00;100741.22;5071496;28;20134;-69
2023/12/31 01:28:42;;;;;;;3.60;2.65;;;;;;;1.24;100.00;100730.78;5036646;28;20043;-68
2023/12/31 01:31:07;;;;;;;5.22;2.90;;;;;;;1.43;100.00;100750.31;5054033;28;20032;-69
2023/12/31 01:33:35;;;;;;;3.13;2.33;;;;;;;1.40;100.00;100741.66;5054602;28;20032;-69
2023/12/31 01:36:00;;;;;;;6.22;2.80;;;;;;;1.44;100.00;100742.22;5072313;28;20449;-69
2023/12/31 01:38:26;;;;;;;6.43;2.90;;;;;;;1.50;100.00;100743.47;5072084;28;20329;-68
2023/12/31 01:40:52;;;;;;;3.10;2.67;;;;;;;1.17;100.00;100690.75;5053876;28;20033;-68
2023/12/31 01:43:19;;;;;;;4.68;2.72;;;;;;;1.45;100.00;100730.63;5071542;28;20044;-69
2023/12/31 01:45:44;;;;;;;5.20;2.58;;;;;;;1.51;100.00;100745.13;5037582;28;20078;-69
2023/12/31 01:48:10;;;;;;;7.88;2.80;;;;;;;1.53;100.00;100743.19;5072029;28;20457;-68
2023/12/31 01:50:35;;;;;;;5.60;2.83;;;;;;;1.52;100.00;100739.66;5054080;28;20035;-69
2023/12/31 01:53:01;;;;;;;5.45;2.30;;;;;;;1.54;100.00;100735.06;5054199;28;20107;-69
2023/12/31 01:55:29;;;;;;;4.30;2.28;;;;;;;1.59;100.00;100729.34;5072090;28;20052;-69
2023/12/31 01:57:54;;;;;;;3.90;2.58;;;;;;;1.61;100.00;100730.03;5054115;28;20376;-68
2023/12/31 02:00:20;;;;;;;4.72;2.50;;;;;;;1.58;100.00;100725.00;5072008;28;20112;-68
2023/12/31 02:02:48;;;;;;;6.55;2.35;;;;;;;1.59;100.00;100726.69;5071797;28;20559;-68
2023/12/31 02:05:14;;;;;;;6.00;2.88;;;;;;;1.49;100.00;100700.22;5053984;28;20039;-68
2023/12/31 02:07:40;;;;;;;4.05;2.50;;;;;;;1.68;100.00;100725.81;5037392;28;20372;-68
2023/12/31 02:10:06;;;;;;;4.03;2.40;;;;;;;1.62;100.00;100731.69;5071661;28;20032;-69
2023/12/31 02:12:31;;;;;;;5.25;2.17;;;;;;;1.57;100.00;100740.09;5071436;28;20455;-68
2023/12/31 02:14:56;;;;;;;5.80;2.50;;;;;;;1.64;100.00;100732.41;5071393;28;20454;-68
2023/12/31 02:17:22;;;;;;;3.17;2.25;;;;;;;1.50;100.00;100714.31;5071241;28;20082;-69
2023/12/31 02:19:47;;;;;;;6.90;2.92;;;;;;;1.68;100.00;100728.47;5053213;28;20028;-69
2023/12/31 02:22:13;;;;;;;5.93;2.95;;;;;;;1.62;100.00;100724.59;5053038;28;20098;-69
2023/12/31 02:24:49;;;;;;;6.88;2.78;;;;;;;1.75;100.00;100739.34;5036744;28;20028;-68
2023/12/31 02:27:17;;;;;;;5.55;2.70;;;;;;;1.30;100.00;100681.69;5053301;28;20054;-68
2023/12/31 02:29:43;;;;;;;5.28;2.53;;;;;;;1.69;100.00;100750.53;5053096;28;20093;-68
2023/12/31 02:32:08;;;;;;;6.63;2.70;;;;;;;1.69;100.00;100751.41;5069659;28;20024;-69
2023/12/31 02:34:33;;;;;;;8.45;2.67;;;;;;;1.71;100.00;100754.72;5071115;28;20395;-69
2023/12/31 02:36:59;;;;;;;4.82;2.50;;;;;;;1.68;100.00;100740.91;5070950;28;20483;-68
2023/12/31 02:39:25;;;;;;;3.85;2.50;;;;;;;1.67;100.00;100748.03;5053104;28;20093;-68
2023/12/31 02:41:51;;;;;;;3.92;2.58;;;;;;;1.68;100.00;100751.53;5070798;28;20055;-68
2023/12/31 02:44:17;;;;;;;7.03;2.83;;;;;;;1.68;100.00;100744.41;5070454;28;20047;-69
2023/12/31 02:46:42;;;;;;;4.50;2.90;;;;;;;1.70;100.00;100750.41;5070879;28;20036;-70
2023/12/31 02:49:11;;;;;;;5.55;2.80;;;;;;;1.69;100.00;100746.09;5036777;28;20403;-69
2023/12/31 02:51:36;;;;;;;5.07;2.58;;;;;;;1.67;100.00;100756.00;5036872;28;20539;-68
2023/12/31 02:54:02;;;;;;;4.28;2.75;;;;;;;1.67;100.00;100758.66;5070888;28;20098;-68
2023/12/31 02:56:28;;;;;;;5.70;2.80;;;;;;;1.61;100.00;100761.88;5071222;28;20107;-68
2023/12/31 02:58:53;;;;;;;6.13;3.35;;;;;;;1.64;100.00;100769.53;5037175;28;20032;-68
2023/12/31 03:01:18;;;;;;;5.88;2.80;;;;;;;1.58;100.00;100762.97;5071577;28;20036;-69
2023/12/31 03:03:44;;;;;;;5.22;2.80;;;;;;;1.48;100.00;100751.53;5071045;28;20043;-68
2023/12/31 03:06:15;;;;;;;5.75;2.78;;;;;;;1.58;100.00;100764.78;5071144;28;20052;-67
2023/12/31 03:08:40;;;;;;;6.93;3.10;;;;;;;1.58;100.00;100764.78;5052829;28;20086;-69
2023/12/31 03:11:08;;;;;;;4.70;2.80;;;;;;;1.56;100.00;100756.16;5070348;28;20063;-68
2023/12/31 03:13:34;;;;;;;8.23;3.28;;;;;;;1.63;100.00;100762.56;5069434;28;20025;-69
2023/12/31 03:16:04;;;;;;;5.20;2.97;;;;;;;1.59;100.00;100764.66;5070285;28;20027;-67
2023/12/31 03:18:30;;;;;;;4.38;2.83;;;;;;;1.59;100.00;100775.28;5071069;28;20103;-69
2023/12/31 03:20:55;;;;;;;6.43;3.42;;;;;;;1.60;100.00;100771.63;5036148;28;20560;-69
2023/12/31 03:23:20;;;;;;;3.70;2.53;;;;;;;1.62;100.00;100768.84;5070431;28;20442;-69
2023/12/31 03:25:46;;;;;;;5.20;2.58;;;;;;;1.62;100.00;100760.88;5070684;28;20537;-69
2023/12/31 03:28:11;;;;;;;3.65;2.45;;;;;;;1.60;100.00;100757.53;5052574;28;20442;-70
2023/12/31 03:30:36;;;;;;;3.60;2.70;;;;;;;1.59;100.00;100756.72;5052874;28;20131;-70
2023/12/31 03:33:03;;;;;;;4.95;2.72;;;;;;;1.60;100.00;100752.25;5035766;28;20032;-69
2023/12/31 03:35:29;;;;;;;3.20;2.35;;;;;;;1.60;100.00;100766.34;5070307;28;20040;-68
2023/12/31 03:37:56;;;;;;;5.78;2.40;;;;;;;1.44;100.00;100744.88;5052788;28;20032;-69
2023/12/31 03:40:23;;;;;;;4.78;2.50;;;;;;;1.58;100.00;100770.09;5052950;28;20440;-67
2023/12/31 03:42:49;;;;;;;4.30;2.40;;;;;;;1.58;100.00;100770.09;5052860;28;20419;-69
2023/12/31 03:45:14;;;;;;;5.82;2.13;;;;;;;1.65;100.00;100771.19;5052757;28;20029;-69
2023/12/31 03:47:40;;;;;;;3.90;2.20;;;;;;;1.64;100.00;100775.69;5052677;28;20562;-70
2023/12/31 03:50:06;;;;;;;4.10;2.63;;;;;;;1.64;100.00;100778.31;5070292;28;20372;-68
2023/12/31 03:52:32;;;;;;;3.47;2.05;;;;;;;1.55;100.00;100755.31;5073011;28;20028;-68
2023/12/31 03:54:58;;;;;;;2.88;1.92;;;;;;;1.74;100.00;100780.97;5074475;28;20020;-68
2023/12/31 03:57:23;;;;;;;6.32;2.20;;;;;;;1.77;100.00;100782.50;5056535;28;20498;-68
2023/12/31 03:59:48;;;;;;;4.57;2.00;;;;;;;1.76;100.00;100779.03;5056379;28;20032;-68
2023/12/31 04:02:16;;;;;;;3.60;1.80;;;;;;;1.79;100.00;100780.56;5056232;28;20111;-69
2023/12/31 04:04:41;;;;;;;1.67;1.30;;;;;;;1.81;100.00;100784.72;5072913;28;20082;-69
2023/12/31 04:07:06;;;;;;;2.63;1.30;;;;;;;1.87;100.00;100783.31;5055731;28;20033;-68
2023/12/31 04:09:32;;;;;;;1.60;1.20;;;;;;;1.86;100.00;100787.78;5073922;28;20511;-68
2023/12/31 04:11:58;;;;;;;3.47;1.20;;;;;;;1.90;100.00;100792.81;5039081;28;20462;-68
2023/12/31 04:14:23;;;;;;;3.22;1.20;;;;;;;1.96;100.00;100784.28;5073781;28;20032;-69
2023/12/31 04:16:48;;;;;;;2.33;0.85;;;;;;;1.95;100.00;100783.41;5073604;28;20449;-69
2023/12/31 04:19:14;;;;;;;1.70;1.00;;;;;;;2.00;100.00;100793.63;5055452;28;20123;-67
2023/12/31 04:21:41;;;;;;;2.15;0.70;;;;;;;1.77;100.00;100756.81;5055770;28;20100;-69
2023/12/31 04:24:06;;;;;;;2.45;0.90;;;;;;;1.84;100.00;100765.88;5073611;28;20075;-68
2023/12/31 04:26:32;;;;;;;2.58;0.75;;;;;;;2.06;100.00;100793.88;5073197;28;20040;-68
2023/12/31 04:28:57;;;;;;;1.23;0.60;;;;;;;1.89;100.00;100754.84;5073700;28;20033;-69
2023/12/31 04:31:23;;;;;;;2.20;0.50;;;;;;;2.07;100.00;100794.72;5072007;28;20557;-69
2023/12/31 04:33:48;;;;;;;0.57;0.40;;;;;;;2.04;100.00;100787.88;5038366;28;20037;-68
2023/12/31 04:36:14;;;;;;;1.20;0.60;;;;;;;1.78;100.00;100742.56;5055765;28;20025;-69
2023/12/31 04:38:39;;;;;;;1.30;0.75;;;;;;;2.07;100.00;100784.09;5039130;28;20033;-69
2023/12/31 04:41:05;;;;;;;0.73;0.50;;;;;;;2.02;100.00;100776.59;5038990;28;20051;-68
2023/12/31 04:43:31;;;;;;;1.85;0.40;;;;;;;2.08;100.00;100772.50;5055708;28;20040;-69
2023/12/31 04:45:57;;;;;;;1.10;0.60;;;;;;;2.06;100.00;100763.84;5039018;28;20032;-68
2023/12/31 04:48:22;;;;;;;0.75;0.45;;;;;;;2.02;100.00;100763.31;5073469;28;20380;-68
2023/12/31 04:50:47;;;;;;;2.05;0.50;;;;;;;2.08;100.00;100767.19;5055633;28;20029;-68
2023/12/31 04:53:15;;;;;;;0.68;0.50;;;;;;;2.07;100.00;100769.00;5055261;28;20115;-71
2023/12/31 04:55:41;;;;;;;1.02;0.47;;;;;;;2.10;100.00;100754.63;5073673;28;20036;-71
2023/12/31 04:58:06;;;;;;;0.73;0.50;;;;;;;1.88;100.00;100738.06;5072950;28;20396;-69
2023/12/31 05:00:31;;;;;;;1.58;0.50;;;;;;;2.02;100.00;100757.16;5055650;28;20062;-69
2023/12/31 05:02:56;;;;;;;0.43;0.43;;;;;;;2.00;100.00;100759.13;5071601;28;20021;-69
2023/12/31 05:05:22;;;;;;;1.27;0.45;;;;;;;1.98;100.00;100745.97;5055223;28;20032;-68
2023/12/31 05:07:48;;;;;;;2.03;0.45;;;;;;;1.81;100.00;100729.00;5054960;28;20064;-69
2023/12/31 05:10:13;;;;;;;3.67;0.52;;;;;;;1.99;100.00;100757.47;5054823;28;20086;-69
2023/12/31 05:12:38;;;;;;;1.35;0.50;;;;;;;1.92;100.00;100746.59;5054937;28;20036;-69
2023/12/31 05:15:04;;;;;;;1.45;0.70;;;;;;;1.90;100.00;100750.38;5054817;28;20060;-69
2023/12/31 05:17:29;;;;;;;5.07;0.60;;;;;;;1.81;100.00;100728.16;5072531;28;20122;-68
2023/12/31 05:19:55;;;;;;;0.82;0.57;;;;;;;1.96;100.00;100749.78;5054927;28;20028;-69
2023/12/31 05:22:20;;;;;;;0.95;0.55;;;;;;;1.90;100.00;100756.50;5054490;28;20035;-68
2023/12/31 05:24:45;;;;;;;3.08;0.80;;;;;;;1.97;100.00;100759.41;5072513;28;20581;-68
2023/12/31 05:27:11;;;;;;;0.60;0.50;;;;;;;1.99;100.00;100771.56;5054595;28;20501;-69
2023/12/31 05:29:36;;;;;;;0.90;0.55;;;;;;;1.99;100.00;100776.03;5072646;28;20513;-68
2023/12/31 05:32:02;;;;;;;1.17;0.60;;;;;;;1.91;100.00;100752.84;5054124;28;20037;-69
2023/12/31 05:34:27;;;;;;;1.00;0.50;;;;;;;1.97;100.00;100776.16;5072280;28;20028;-68
2023/12/31 05:36:52;;;;;;;0.60;0.40;;;;;;;1.95;100.00;100785.25;5054538;28;20144;-68
2023/12/31 05:39:18;;;;;;;1.30;0.60;;;;;;;1.91;100.00;100757.34;5072550;28;20075;-69
2023/12/31 05:41:43;;;;;;;1.65;0.63;;;;;;;2.00;100.00;100775.06;5072487;28;20139;-69
2023/12/31 05:44:08;;;;;;;1.13;0.60;;;;;;;1.88;100.00;100766.41;5037812;28;20502;-68
2023/12/31 05:46:34;;;;;;;3.08;0.60;;;;;;;2.00;100.00;100778.53;5054504;28;20394;-68
2023/12/31 05:48:59;;;;;;;0.88;0.60;;;;;;;2.03;100.00;100778.25;5054287;28;20024;-68
2023/12/31 05:51:24;;;;;;;0.73;0.50;;;;;;;2.03;100.00;100772.09;5054449;28;20091;-68
2023/12/31 05:53:50;;;;;;;0.80;0.70;;;;;;;2.06;100.00;100780.63;5054568;28;20056;-69
2023/12/31 05:56:15;;;;;;;1.58;0.60;;;;;;;2.01;100.00;100777.53;5054352;28;20435;-69
2023/12/31 05:58:42;;;;;;;1.17;0.60;;;;;;;1.93;100.00;100782.75;5054406;28;20044;-69
2023/12/31 06:01:08;;;;;;;1.55;0.52;;;;;;;1.92;100.00;100772.25;5054556;28;20070;-69
2023/12/31 06:03:33;;;;;;;0.50;0.50;;;;;;;1.99;100.00;100779.53;5053495;28;20067;-69
2023/12/31 06:05:59;;;;;;;0.80;0.55;;;;;;;1.96;100.00;100778.97;5071470;28;20093;-69
2023/12/31 06:08:25;;;;;;;0.60;0.50;;;;;;;1.91;100.00;100754.69;5070069;28;20028;-69
2023/12/31 06:10:50;;;;;;;1.35;0.70;;;;;;;2.13;100.00;100778.22;5037022;28;20032;-69
2023/12/31 06:13:16;;;;;;;0.75;0.47;;;;;;;2.03;100.00;100780.06;5070975;28;20032;-69
2023/12/31 06:15:41;;;;;;;2.42;0.57;;;;;;;2.00;100.00;100777.69;5071378;28;20028;-67
2023/12/31 06:18:07;;;;;;;1.63;0.50;;;;;;;2.05;100.00;100778.09;5037761;28;20086;-68
2023/12/31 06:20:32;;;;;;;1.25;0.55;;;;;;;1.87;100.00;100754.13;5053613;28;20123;-68
2023/12/31 06:22:57;;;;;;;0.50;0.40;;;;;;;2.04;100.00;100782.56;5053616;28;20036;-69
2023/12/31 06:25:23;;;;;;;1.83;0.52;;;;;;;2.06;100.00;100788.56;5053651;28;20029;-68
2023/12/31 06:27:48;;;;;;;1.42;0.40;;;;;;;2.07;100.00;100784.09;5053836;28;20041;-68
2023/12/31 06:30:14;;;;;;;2.42;0.50;;;;;;;2.04;100.00;100765.81;5053696;28;20495;-69
2023/12/31 06:32:39;;;;;;;0.50;0.50;;;;;;;2.06;100.00;100774.47;5071795;28;20031;-69
2023/12/31 06:35:05;;;;;;;1.08;0.50;;;;;;;2.04;100.00;100768.47;5053517;28;20028;-68
2023/12/31 06:37:30;;;;;;;3.03;0.60;;;;;;;2.07;100.00;100769.00;5053537;28;20115;-68
2023/12/31 06:39:56;;;;;;;2.25;0.60;;;;;;;2.06;100.00;100775.31;5053545;28;20207;-69
2023/12/31 06:42:21;;;;;;;0.60;0.50;;;;;;;2.00;100.00;100765.25;5053450;28;20052;-68
2023/12/31 06:44:47;;;;;;;1.05;0.60;;;;;;;2.04;100.00;100771.13;5036702;28;20414;-69
2023/12/31 06:47:12;;;;;;;1.08;0.50;;;;;;;2.06;100.00;100769.16;5071092;28;20412;-68
2023/12/31 06:49:38;;;;;;;2.00;0.45;;;;;;;2.02;100.00;100768.63;5071417;28;20080;-68
2023/12/31 06:52:04;;;;;;;1.88;0.50;;;;;;;1.93;100.00;100766.00;5053055;28;20029;-68
2023/12/31 06:54:29;;;;;;;2.95;0.50;;;;;;;2.07;100.00;100786.75;5052962;28;20024;-69
2023/12/31 06:56:55;;;;;;;1.17;0.55;;;;;;;2.05;100.00;100772.78;5036683;28;20483;-69
2023/12/31 06:59:20;;;;;;;1.33;0.70;;;;;;;2.08;100.00;100777.81;5069472;28;20410;-69
2023/12/31 07:01:46;;;;;;;1.13;0.50;;;;;;;2.13;100.00;100791.50;5052791;28;20116;-68
2023/12/31 07:04:11;;;;;;;1.70;0.65;;;;;;;2.10;100.00;100781.16;5052955;28;20352;-68
2023/12/31 07:06:36;;;;;;;1.00;0.60;;;;;;;2.08;100.00;100781.28;5070795;28;20044;-69
2023/12/31 07:09:02;;;;;;;1.25;0.68;;;;;;;1.87;100.00;100743.53;5070292;28;20037;-68
2023/12/31 07:11:27;;;;;;;0.57;0.50;;;;;;;2.16;100.00;100782.41;5069221;28;20032;-68
2023/12/31 07:13:52;;;;;;;0.60;0.60;;;;;;;2.15;100.00;100778.91;5052343;28;20033;-68
2023/12/31 07:16:18;;;;;;;2.58;0.70;;;;;;;2.19;100.00;100782.94;5052864;28;20551;-69
2023/12/31 07:18:44;;;;;;;1.52;0.70;;;;;;;2.23;100.00;100780.84;5070890;28;20032;-69
2023/12/31 07:21:09;;;;;;;0.70;0.40;;;;;;;2.20;100.00;100795.22;5070738;28;20024;-68
2023/12/31 07:23:36;;;;;;;1.65;0.80;;;;;;;2.20;100.00;100797.88;5052886;28;20404;-69
2023/12/31 07:26:03;;;;;;;1.38;0.43;;;;;;;2.20;100.00;100792.59;5055294;28;20043;-68
2023/12/31 07:28:29;;;;;;;2.30;0.68;;;;;;;2.18;100.00;100780.44;5073704;28;20127;-68
2023/12/31 07:30:54;;;;;;;1.33;0.68;;;;;;;2.15;100.00;100780.72;5074902;28;20119;-68
2023/12/31 07:33:20;;;;;;;1.65;0.40;;;;;;;2.14;100.00;100777.22;5056875;28;20127;-68
2023/12/31 07:35:45;;;;;;;2.15;0.60;;;;;;;2.17;100.00;100782.25;5056503;28;20077;-69
2023/12/31 07:38:11;;;;;;;1.92;0.50;;;;;;;2.23;100.00;100775.53;5074591;28;20477;-68
2023/12/31 07:40:36;;;;;;;2.08;0.73;;;;;;;2.22;100.00;100785.31;5040187;28;20032;-67
2023/12/31 07:43:02;;;;;;;0.98;0.45;;;;;;;2.19;100.00;100782.94;5074361;28;20064;-69
2023/12/31 07:45:28;;;;;;;1.63;0.40;;;;;;;2.04;100.00;100766.63;5056191;28;20036;-68
2023/12/31 07:47:54;;;;;;;1.40;0.50;;;;;;;2.22;100.00;100785.31;5074300;28;20035;-69
2023/12/31 07:50:23;;;;;;;0.50;0.50;;;;;;;2.13;100.00;100767.59;5074175;28;20119;-68
2023/12/31 07:52:48;;;;;;;3.72;0.70;;;;;;;2.22;100.00;100787.09;5072917;28;20036;-68
2023/12/31 07:55:14;;;;;;;1.33;0.47;;;;;;;2.26;100.00;100789.34;5039417;28;20037;-68
2023/12/31 07:57:39;;;;;;;1.15;0.40;;;;;;;2.21;100.00;100796.06;5056221;28;20032;-69
2023/12/31 08:00:06;;;;;;;2.08;0.60;;;;;;;2.25;100.00;100797.44;5073864;28;20032;-69
2023/12/31 08:02:31;;;;;;;2.05;0.60;;;;;;;2.22;100.00;100797.72;5055405;28;20408;-68
2023/12/31 08:04:56;;;;;;;1.38;0.50;;;;;;;2.12;100.00;100784.53;5056002;28;20024;-67
2023/12/31 08:07:22;;;;;;;1.73;0.70;;;;;;;2.26;100.00;100801.78;5073972;28;20479;-68
2023/12/31 08:09:47;;;;;;;2.15;0.65;;;;;;;2.28;100.00;100800.63;5039539;28;20040;-68
2023/12/31 08:12:13;;;;;;;0.88;0.60;;;;;;;2.34;100.00;100796.56;5073550;28;20449;-68
2023/12/31 08:14:39;;;;;;;1.50;0.80;;;;;;;2.24;100.00;100799.25;5073630;28;20037;-69
2023/12/31 08:17:04;;;;;;;1.08;0.45;;;;;;;2.25;100.00;100810.72;5073981;28;20090;-68
2023/12/31 08:19:30;;;;;;;1.95;0.60;;;;;;;2.10;100.00;100789.13;5056235;28;20339;-68
2023/12/31 08:21:55;;;;;;;1.42;0.50;;;;;;;2.27;100.00;100801.63;5056186;28;20052;-69
2023/12/31 08:24:21;;;;;;;0.65;0.38;;;;;;;2.24;100.00;100803.75;5055781;28;20029;-68
2023/12/31 08:26:47;;;;;;;0.85;0.40;;;;;;;2.23;100.00;100802.91;5055863;28;20039;-68
2023/12/31 08:29:12;;;;;;;1.23;0.40;;;;;;;2.18;100.00;100804.31;5073788;28;20028;-68
2023/12/31 08:31:37;;;;;;;1.33;0.50;;;;;;;2.10;100.00;100778.50;5039210;28;20024;-69
2023/12/31 08:34:03;;;;;;;0.55;0.40;;;;;;;2.19;100.00;100806.84;5055808;28;20025;-67
2023/12/31 08:36:29;;;;;;;2.92;0.30;;;;;;;2.18;100.00;100805.16;5055523;28;20041;-68
2023/12/31 08:38:55;;;;;;;0.70;0.50;;;;;;;2.26;100.00;100802.63;5038960;28;20036;-67
2023/12/31 08:41:21;;;;;;;0.88;0.30;;;;;;;2.29;100.00;100802.34;5055750;28;20131;-68
2023/12/31 08:43:49;;;;;;;1.17;0.30;;;;;;;2.26;100.00;100801.78;5073414;28;20031;-69
2023/12/31 08:46:14;;;;;;;0.40;0.30;;;;;;;2.30;100.00;100801.34;5073155;28;20020;-68
2023/12/31 08:48:41;;;;;;;2.47;0.30;;;;;;;2.30;100.00;100792.53;5072025;28;20097;-70
2023/12/31 08:51:07;;;;;;;0.40;0.38;;;;;;;2.33;100.00;100802.88;5055608;28;20032;-68
2023/12/31 08:53:32;;;;;;;1.77;0.47;;;;;;;2.29;100.00;100791.72;5073139;28;20039;-68
2023/12/31 08:55:58;;;;;;;0.70;0.32;;;;;;;2.22;100.00;100795.94;5073172;28;20078;-67
2023/12/31 08:58:23;;;;;;;0.47;0.30;;;;;;;2.25;100.00;100787.69;5072914;28;20055;-68
2023/12/31 09:00:48;;;;;;;0.95;0.30;;;;;;;2.20;100.00;100776.66;5055153;28;20036;-68
2023/12/31 09:03:14;;;;;;;0.55;0.30;;;;;;;2.23;100.00;100794.94;5072898;28;20024;-72
2023/12/31 09:05:39;;;;;;;1.42;0.40;;;;;;;2.26;100.00;100794.66;5072721;28;20432;-68
2023/12/31 09:08:05;;;;;;;1.35;0.40;;;;;;;2.32;100.00;100793.25;5054761;28;20119;-67
2023/12/31 09:10:30;;;;;;;0.57;0.30;;;;;;;2.30;100.00;100789.88;5054257;28;20025;-68
2023/12/31 09:12:56;;;;;;;1.10;0.40;;;;;;;2.32;100.00;100793.25;5055051;28;20028;-68
2023/12/31 09:15:22;;;;;;;0.68;0.40;;;;;;;2.27;100.00;100788.34;5055175;28;20029;-68
2023/12/31 09:17:48;;;;;;;2.08;0.40;;;;;;;2.30;100.00;100793.38;5071773;28;20029;-68
2023/12/31 09:20:13;;;;;;;0.70;0.28;;;;;;;2.24;100.00;100786.00;5054994;28;20081;-68
2023/12/31 09:22:39;;;;;;;0.85;0.38;;;;;;;2.03;100.00;100758.84;5055005;28;20039;-68
2023/12/31 09:25:06;;;;;;;0.85;0.50;;;;;;;2.17;100.00;100755.69;5072206;28;20020;-67
2023/12/31 09:27:32;;;;;;;0.70;0.30;;;;;;;2.32;100.00;100794.09;5056143;28;20028;-67
2023/12/31 09:29:58;;;;;;;0.77;0.40;;;;;;;2.28;100.00;100784.72;5038321;28;20498;-68
2023/12/31 09:32:23;;;;;;;1.33;0.47;;;;;;;2.28;100.00;100787.38;5075414;28;20036;-67
2023/12/31 09:34:48;;;;;;;0.63;0.32;;;;;;;2.39;100.00;100785.53;5076284;28;20111;-67
2023/12/31 09:37:18;;;;;;;1.35;0.43;;;;;;;2.28;100.00;100770.59;5076662;28;20036;-68
2023/12/31 09:39:45;;;;;;;0.60;0.40;;;;;;;2.37;100.00;100776.88;5076327;28;20039;-66
2023/12/31 09:42:13;;;;;;;1.30;0.65;;;;;;;2.40;100.00;100782.72;5057801;28;20072;-68
2023/12/31 09:44:41;;;;;;;1.85;0.55;;;;;;;2.00;100.00;100708.69;5057646;28;20441;-67
2023/12/31 09:47:08;;;;;;;0.60;0.50;;;;;;;2.45;100.00;100784.91;5075572;28;20024;-67
2023/12/31 09:49:35;;;;;;;2.05;0.50;;;;;;;2.38;100.00;100783.84;5055802;28;20166;-68
2023/12/31 09:52:05;;;;;;;0.52;0.40;;;;;;;2.44;100.00;100772.63;5054187;28;20334;-67
2023/12/31 09:54:32;;;;;;;0.52;0.40;;;;;;;2.37;100.00;100779.53;5054068;28;20437;-68
2023/12/31 09:56:58;;;;;;;0.60;0.43;;;;;;;2.37;100.00;100777.69;5071944;28;20032;-67
2023/12/31 09:59:28;;;;;;;0.68;0.40;;;;;;;2.38;100.00;100767.91;5053970;28;20047;-68
2023/12/31 10:02:07;;;;;;;1.30;0.50;;;;;;;2.31;100.00;100752.56;5071737;28;20026;-68
2023/12/31 10:04:32;;;;;;;2.45;0.60;;;;;;;2.51;100.00;100771.06;5053760;28;20094;-68
2023/12/31 10:06:59;;;;;;;0.80;0.40;;;;;;;2.45;100.00;100755.72;5070410;28;20487;-68
2023/12/31 10:09:30;;;;;;;1.52;0.57;;;;;;;2.55;100.00;100765.31;5070451;28;20086;-68
2023/12/31 10:11:56;;;;;;;0.73;0.40;;;;;;;2.47;100.00;100751.09;5072137;28;20028;-67
2023/12/31 10:14:25;;;;;;;1.20;0.40;;;;;;;2.39;100.00;100740.38;5037554;28;20470;-68
2023/12/31 10:16:51;;;;;;;3.00;0.50;;;;;;;2.49;100.00;100749.97;5071956;28;20059;-68
2023/12/31 10:19:16;;;;;;;1.63;0.35;;;;;;;2.48;100.00;100747.44;5053961;28;20060;-68
2023/12/31 10:21:42;;;;;;;0.68;0.50;;;;;;;2.58;100.00;100748.22;5072038;28;20497;-68
2023/12/31 10:24:09;;;;;;;2.42;0.45;;;;;;;2.48;100.00;100739.47;5053921;28;20530;-69
2023/12/31 10:26:35;;;;;;;1.38;0.30;;;;;;;2.40;100.00;100710.19;5054287;28;20467;-68
2023/12/31 10:29:00;;;;;;;1.70;0.60;;;;;;;2.38;100.00;100706.84;5054158;28;20032;-70
2023/12/31 10:31:26;;;;;;;1.27;0.68;;;;;;;2.35;100.00;100695.53;5070369;28;20048;-69
2023/12/31 10:33:52;;;;;;;2.10;0.50;;;;;;;2.49;100.00;100727.91;5053761;28;20024;-68
2023/12/31 10:36:24;;;;;;;1.00;0.50;;;;;;;2.46;100.00;100729.03;5053173;28;20391;-68
2023/12/31 10:38:50;;;;;;;0.80;0.40;;;;;;;2.51;100.00;100725.91;5069831;28;20035;-68
2023/12/31 10:41:21;;;;;;;1.48;0.50;;;;;;;2.51;100.00;100716.13;5070935;28;20028;-68
2023/12/31 10:43:47;;;;;;;0.77;0.40;;;;;;;2.43;100.00;100686.81;5071123;28;20025;-68
2023/12/31 10:46:20;;;;;;;3.85;0.60;;;;;;;2.62;100.00;100712.44;5070799;28;20475;-68
2023/12/31 10:48:53;;;;;;;1.20;0.40;;;;;;;2.57;100.00;100717.34;5070961;28;20048;-67
2023/12/31 10:51:26;;;;;;;1.77;0.35;;;;;;;2.55;100.00;100703.38;5070901;28;20024;-69
2023/12/31 10:53:57;;;;;;;1.98;0.50;;;;;;;2.63;100.00;100695.50;5071171;28;20017;-67
2023/12/31 10:56:24;;;;;;;1.13;0.40;;;;;;;2.34;100.00;100671.78;5070382;28;20107;-69
2023/12/31 10:58:53;;;;;;;2.15;0.60;;;;;;;2.49;100.00;100706.66;5069393;28;20028;-67
2023/12/31 11:01:20;;;;;;;1.67;0.40;;;;;;;2.50;100.00;100693.22;5070731;28;20035;-67
2023/12/31 11:03:47;;;;;;;2.25;0.40;;;;;;;2.47;100.00;100703.28;5053142;28;20064;-68
2023/12/31 11:06:15;;;;;;;0.57;0.30;;;;;;;2.48;100.00;100697.00;5052844;28;20480;-68
2023/12/31 11:08:41;;;;;;;1.33;0.50;;;;;;;2.42;100.00;100684.31;5053342;28;20451;-69
2023/12/31 11:11:07;;;;;;;0.73;0.40;;;;;;;2.38;100.00;100675.81;5070873;28;20058;-68
2023/12/31 11:13:37;;;;;;;0.80;0.40;;;;;;;2.49;100.00;100698.69;5071120;28;20056;-68
2023/12/31 11:16:05;;;;;;;2.65;0.55;;;;;;;2.44;100.00;100695.63;5071161;28;20033;-67
2023/12/31 11:18:51;;;;;;;1.38;0.40;;;;;;;2.37;100.00;100690.06;5070559;28;20088;-67